sensor_id;sensor_type;location;lat;lon;timestamp;P1;durP1;ratioP1;P2;durP2;ratioP2
6163;SDS011;3114;48.362;10.994;2022-08-03T00:01:04;2.28;;;1.55;;
6163;SDS011;3114;48.362;10.994;2022-08-03T00:03:31;2.75;;;2.00;;
6163;SDS011;3114;48.362;10.994;2022-08-03T00:06:02;1.30;;;1.20;;
6163;SDS011;3114;48.362;10.994;2022-08-03T00:08:29;1.60;;;1.50;;
6163;SDS011;3114;48.362;10.994;2022-08-03T00:10:56;3.05;;;1.50;;
6163;SDS011;3114;48.362;10.994;2022-08-03T00:13:23;3.53;;;1.70;;
6163;SDS011;3114;48.362;10.994;2022-08-03T00:15:50;1.30;;;1.20;;
6163;SDS011;3114;48.362;10.994;2022-08-03T00:18:17;1.55;;;1.33;;
6163;SDS011;3114;48.362;10.994;2022-08-03T00:20:44;1.75;;;1.50;;
6163;SDS011;3114;48.362;10.994;2022-08-03T00:23:12;1.95;;;1.70;;
6163;SDS011;3114;48.362;10.994;2022-08-03T00:25:39;1.73;;;1.40;;
6163;SDS011;3114;48.362;10.994;2022-08-03T00:28:06;1.85;;;1.73;;
6163;SDS011;3114;48.362;10.994;2022-08-03T00:30:34;1.30;;;1.20;;
6163;SDS011;3114;48.362;10.994;2022-08-03T00:33:00;1.65;;;1.23;;
6163;SDS011;3114;48.362;10.994;2022-08-03T00:35:28;1.35;;;1.25;;
6163;SDS011;3114;48.362;10.994;2022-08-03T00:37:56;1.45;;;1.30;;
6163;SDS011;3114;48.362;10.994;2022-08-03T00:40:24;1.73;;;1.42;;
6163;SDS011;3114;48.362;10.994;2022-08-03T00:42:54;1.85;;;1.63;;
6163;SDS011;3114;48.362;10.994;2022-08-03T00:45:22;1.60;;;1.42;;
6163;SDS011;3114;48.362;10.994;2022-08-03T00:47:50;2.65;;;1.38;;
6163;SDS011;3114;48.362;10.994;2022-08-03T00:50:17;3.08;;;1.50;;
6163;SDS011;3114;48.362;10.994;2022-08-03T00:52:47;1.67;;;1.33;;
6163;SDS011;3114;48.362;10.994;2022-08-03T00:55:14;2.78;;;1.40;;
6163;SDS011;3114;48.362;10.994;2022-08-03T00:57:44;2.80;;;1.60;;
6163;SDS011;3114;48.362;10.994;2022-08-03T01:00:13;1.63;;;1.52;;
6163;SDS011;3114;48.362;10.994;2022-08-03T01:02:42;3.00;;;1.45;;
6163;SDS011;3114;48.362;10.994;2022-08-03T01:05:09;1.83;;;1.63;;
6163;SDS011;3114;48.362;10.994;2022-08-03T01:07:40;2.25;;;1.70;;
6163;SDS011;3114;48.362;10.994;2022-08-03T01:10:19;2.08;;;1.60;;
6163;SDS011;3114;48.362;10.994;2022-08-03T01:12:56;2.38;;;1.50;;
6163;SDS011;3114;48.362;10.994;2022-08-03T01:15:28;1.95;;;1.85;;
6163;SDS011;3114;48.362;10.994;2022-08-03T01:18:02;2.05;;;1.73;;
6163;SDS011;3114;48.362;10.994;2022-08-03T01:20:36;1.70;;;1.60;;
6163;SDS011;3114;48.362;10.994;2022-08-03T01:23:09;1.90;;;1.70;;
6163;SDS011;3114;48.362;10.994;2022-08-03T01:25:59;2.15;;;1.60;;
6163;SDS011;3114;48.362;10.994;2022-08-03T01:28:44;3.63;;;1.50;;
6163;SDS011;3114;48.362;10.994;2022-08-03T01:31:25;1.90;;;1.60;;
6163;SDS011;3114;48.362;10.994;2022-08-03T01:33:54;1.60;;;1.50;;
6163;SDS011;3114;48.362;10.994;2022-08-03T01:36:25;1.45;;;1.35;;
6163;SDS011;3114;48.362;10.994;2022-08-03T01:38:59;2.92;;;1.38;;
6163;SDS011;3114;48.362;10.994;2022-08-03T01:41:28;2.58;;;1.90;;
6163;SDS011;3114;48.362;10.994;2022-08-03T01:43:58;2.75;;;1.40;;
6163;SDS011;3114;48.362;10.994;2022-08-03T01:46:29;2.53;;;1.67;;
6163;SDS011;3114;48.362;10.994;2022-08-03T01:48:57;1.48;;;1.38;;
6163;SDS011;3114;48.362;10.994;2022-08-03T01:51:26;1.63;;;1.33;;
6163;SDS011;3114;48.362;10.994;2022-08-03T01:53:54;3.15;;;2.17;;
6163;SDS011;3114;48.362;10.994;2022-08-03T01:56:22;3.10;;;1.45;;
6163;SDS011;3114;48.362;10.994;2022-08-03T01:58:51;1.33;;;1.23;;
6163;SDS011;3114;48.362;10.994;2022-08-03T02:01:19;1.63;;;1.30;;
6163;SDS011;3114;48.362;10.994;2022-08-03T02:03:49;1.63;;;1.52;;
6163;SDS011;3114;48.362;10.994;2022-08-03T02:06:17;2.65;;;1.70;;
6163;SDS011;3114;48.362;10.994;2022-08-03T02:08:47;2.45;;;1.70;;
6163;SDS011;3114;48.362;10.994;2022-08-03T02:11:15;2.15;;;1.52;;
6163;SDS011;3114;48.362;10.994;2022-08-03T02:13:42;3.55;;;1.50;;
6163;SDS011;3114;48.362;10.994;2022-08-03T02:16:10;3.30;;;1.52;;
6163;SDS011;3114;48.362;10.994;2022-08-03T02:18:39;2.47;;;1.77;;
6163;SDS011;3114;48.362;10.994;2022-08-03T02:21:08;1.65;;;1.17;;
6163;SDS011;3114;48.362;10.994;2022-08-03T02:23:37;1.75;;;1.60;;
6163;SDS011;3114;48.362;10.994;2022-08-03T02:26:05;1.17;;;1.10;;
6163;SDS011;3114;48.362;10.994;2022-08-03T02:28:36;1.40;;;1.20;;
6163;SDS011;3114;48.362;10.994;2022-08-03T02:31:06;1.80;;;1.40;;
6163;SDS011;3114;48.362;10.994;2022-08-03T02:33:40;3.40;;;1.40;;
6163;SDS011;3114;48.362;10.994;2022-08-03T02:36:13;1.50;;;1.40;;
6163;SDS011;3114;48.362;10.994;2022-08-03T02:38:42;1.45;;;1.35;;
6163;SDS011;3114;48.362;10.994;2022-08-03T02:41:12;1.42;;;1.33;;
6163;SDS011;3114;48.362;10.994;2022-08-03T02:43:42;3.45;;;1.70;;
6163;SDS011;3114;48.362;10.994;2022-08-03T02:46:12;3.70;;;1.80;;
6163;SDS011;3114;48.362;10.994;2022-08-03T02:48:43;1.55;;;1.45;;
6163;SDS011;3114;48.362;10.994;2022-08-03T02:51:13;2.00;;;1.80;;
6163;SDS011;3114;48.362;10.994;2022-08-03T02:53:44;2.67;;;1.55;;
6163;SDS011;3114;48.362;10.994;2022-08-03T02:56:12;1.50;;;1.40;;
6163;SDS011;3114;48.362;10.994;2022-08-03T02:58:41;5.05;;;1.63;;
6163;SDS011;3114;48.362;10.994;2022-08-03T03:01:09;4.13;;;2.55;;
6163;SDS011;3114;48.362;10.994;2022-08-03T03:03:36;3.13;;;1.48;;
6163;SDS011;3114;48.362;10.994;2022-08-03T03:06:05;4.35;;;3.60;;
6163;SDS011;3114;48.362;10.994;2022-08-03T03:08:35;3.67;;;2.53;;
6163;SDS011;3114;48.362;10.994;2022-08-03T03:11:02;1.88;;;1.50;;
6163;SDS011;3114;48.362;10.994;2022-08-03T03:13:30;2.58;;;2.00;;
6163;SDS011;3114;48.362;10.994;2022-08-03T03:15:59;2.58;;;1.60;;
6163;SDS011;3114;48.362;10.994;2022-08-03T03:18:27;1.60;;;1.50;;
6163;SDS011;3114;48.362;10.994;2022-08-03T03:20:56;2.30;;;1.67;;
6163;SDS011;3114;48.362;10.994;2022-08-03T03:23:24;2.20;;;1.90;;
6163;SDS011;3114;48.362;10.994;2022-08-03T03:25:54;1.98;;;1.70;;
6163;SDS011;3114;48.362;10.994;2022-08-03T03:28:23;1.80;;;1.70;;
6163;SDS011;3114;48.362;10.994;2022-08-03T03:30:50;2.05;;;1.58;;
6163;SDS011;3114;48.362;10.994;2022-08-03T03:33:17;2.53;;;1.77;;
6163;SDS011;3114;48.362;10.994;2022-08-03T03:35:44;2.60;;;1.70;;
6163;SDS011;3114;48.362;10.994;2022-08-03T03:38:12;1.73;;;1.63;;
6163;SDS011;3114;48.362;10.994;2022-08-03T03:40:39;1.98;;;1.88;;
6163;SDS011;3114;48.362;10.994;2022-08-03T03:43:07;2.80;;;1.75;;
6163;SDS011;3114;48.362;10.994;2022-08-03T03:45:35;2.33;;;2.10;;
6163;SDS011;3114;48.362;10.994;2022-08-03T03:48:03;2.60;;;2.15;;
6163;SDS011;3114;48.362;10.994;2022-08-03T03:50:31;1.60;;;1.48;;
6163;SDS011;3114;48.362;10.994;2022-08-03T03:52:59;3.90;;;1.70;;
6163;SDS011;3114;48.362;10.994;2022-08-03T03:55:26;1.75;;;1.65;;
6163;SDS011;3114;48.362;10.994;2022-08-03T03:57:54;1.98;;;1.67;;
6163;SDS011;3114;48.362;10.994;2022-08-03T04:00:22;1.95;;;1.73;;
6163;SDS011;3114;48.362;10.994;2022-08-03T04:02:49;2.85;;;1.50;;
6163;SDS011;3114;48.362;10.994;2022-08-03T04:05:16;3.15;;;2.13;;
6163;SDS011;3114;48.362;10.994;2022-08-03T04:08:06;3.90;;;1.95;;
6163;SDS011;3114;48.362;10.994;2022-08-03T04:10:54;1.90;;;1.80;;
6163;SDS011;3114;48.362;10.994;2022-08-03T04:13:28;3.70;;;1.83;;
6163;SDS011;3114;48.362;10.994;2022-08-03T04:16:00;2.40;;;2.20;;
6163;SDS011;3114;48.362;10.994;2022-08-03T04:18:28;4.85;;;2.28;;
6163;SDS011;3114;48.362;10.994;2022-08-03T04:20:59;2.10;;;1.83;;
6163;SDS011;3114;48.362;10.994;2022-08-03T04:23:29;3.22;;;2.05;;
6163;SDS011;3114;48.362;10.994;2022-08-03T04:25:58;6.00;;;2.45;;
6163;SDS011;3114;48.362;10.994;2022-08-03T04:28:27;2.47;;;2.20;;
6163;SDS011;3114;48.362;10.994;2022-08-03T04:30:56;2.63;;;1.85;;
6163;SDS011;3114;48.362;10.994;2022-08-03T04:33:25;3.83;;;1.70;;
6163;SDS011;3114;48.362;10.994;2022-08-03T04:35:54;2.67;;;1.90;;
6163;SDS011;3114;48.362;10.994;2022-08-03T04:38:24;4.00;;;2.30;;
6163;SDS011;3114;48.362;10.994;2022-08-03T04:40:52;2.63;;;2.00;;
6163;SDS011;3114;48.362;10.994;2022-08-03T04:43:21;4.78;;;2.25;;
6163;SDS011;3114;48.362;10.994;2022-08-03T04:45:49;2.42;;;1.88;;
6163;SDS011;3114;48.362;10.994;2022-08-03T04:48:17;2.38;;;2.10;;
6163;SDS011;3114;48.362;10.994;2022-08-03T04:50:46;2.30;;;2.00;;
6163;SDS011;3114;48.362;10.994;2022-08-03T04:53:13;2.35;;;2.13;;
6163;SDS011;3114;48.362;10.994;2022-08-03T04:55:42;4.18;;;2.50;;
6163;SDS011;3114;48.362;10.994;2022-08-03T04:58:09;2.10;;;1.90;;
6163;SDS011;3114;48.362;10.994;2022-08-03T05:00:36;2.40;;;1.98;;
6163;SDS011;3114;48.362;10.994;2022-08-03T05:03:03;3.85;;;1.92;;
6163;SDS011;3114;48.362;10.994;2022-08-03T05:05:30;2.03;;;1.75;;
6163;SDS011;3114;48.362;10.994;2022-08-03T05:07:58;2.40;;;1.50;;
6163;SDS011;3114;48.362;10.994;2022-08-03T05:10:25;2.17;;;1.80;;
6163;SDS011;3114;48.362;10.994;2022-08-03T05:12:52;1.63;;;1.52;;
6163;SDS011;3114;48.362;10.994;2022-08-03T05:15:19;1.75;;;1.65;;
6163;SDS011;3114;48.362;10.994;2022-08-03T05:17:46;1.95;;;1.60;;
6163;SDS011;3114;48.362;10.994;2022-08-03T05:20:13;1.60;;;1.50;;
6163;SDS011;3114;48.362;10.994;2022-08-03T05:22:40;2.17;;;1.85;;
6163;SDS011;3114;48.362;10.994;2022-08-03T05:25:09;1.67;;;1.58;;
6163;SDS011;3114;48.362;10.994;2022-08-03T05:27:35;1.60;;;1.45;;
6163;SDS011;3114;48.362;10.994;2022-08-03T05:30:02;1.60;;;1.40;;
6163;SDS011;3114;48.362;10.994;2022-08-03T05:32:30;1.92;;;1.60;;
6163;SDS011;3114;48.362;10.994;2022-08-03T05:34:57;1.60;;;1.40;;
6163;SDS011;3114;48.362;10.994;2022-08-03T05:37:24;2.35;;;1.75;;
6163;SDS011;3114;48.362;10.994;2022-08-03T05:39:50;7.47;;;2.00;;
6163;SDS011;3114;48.362;10.994;2022-08-03T05:42:19;5.05;;;1.95;;
6163;SDS011;3114;48.362;10.994;2022-08-03T05:44:46;4.15;;;2.67;;
6163;SDS011;3114;48.362;10.994;2022-08-03T05:47:12;2.72;;;2.00;;
6163;SDS011;3114;48.362;10.994;2022-08-03T05:49:39;2.58;;;1.90;;
6163;SDS011;3114;48.362;10.994;2022-08-03T05:52:06;2.92;;;1.95;;
6163;SDS011;3114;48.362;10.994;2022-08-03T05:54:33;1.98;;;1.70;;
6163;SDS011;3114;48.362;10.994;2022-08-03T05:57:00;3.65;;;1.85;;
6163;SDS011;3114;48.362;10.994;2022-08-03T05:59:28;4.97;;;1.70;;
6163;SDS011;3114;48.362;10.994;2022-08-03T06:01:55;1.65;;;1.55;;
6163;SDS011;3114;48.362;10.994;2022-08-03T06:04:22;2.20;;;1.63;;
6163;SDS011;3114;48.362;10.994;2022-08-03T06:06:49;2.30;;;1.60;;
6163;SDS011;3114;48.362;10.994;2022-08-03T06:09:16;1.80;;;1.70;;
6163;SDS011;3114;48.362;10.994;2022-08-03T06:11:42;2.80;;;1.73;;
6163;SDS011;3114;48.362;10.994;2022-08-03T06:14:09;2.70;;;1.80;;
6163;SDS011;3114;48.362;10.994;2022-08-03T06:16:37;2.13;;;1.60;;
6163;SDS011;3114;48.362;10.994;2022-08-03T06:19:04;2.15;;;1.92;;
6163;SDS011;3114;48.362;10.994;2022-08-03T06:21:31;5.90;;;1.80;;
6163;SDS011;3114;48.362;10.994;2022-08-03T06:23:58;4.30;;;2.30;;
6163;SDS011;3114;48.362;10.994;2022-08-03T06:26:25;3.58;;;2.00;;
6163;SDS011;3114;48.362;10.994;2022-08-03T06:28:53;2.40;;;2.00;;
6163;SDS011;3114;48.362;10.994;2022-08-03T06:31:20;2.58;;;2.05;;
6163;SDS011;3114;48.362;10.994;2022-08-03T06:33:51;2.20;;;1.85;;
6163;SDS011;3114;48.362;10.994;2022-08-03T06:36:18;4.57;;;2.05;;
6163;SDS011;3114;48.362;10.994;2022-08-03T06:38:45;2.10;;;1.60;;
6163;SDS011;3114;48.362;10.994;2022-08-03T06:41:11;2.83;;;1.90;;
6163;SDS011;3114;48.362;10.994;2022-08-03T06:43:39;2.38;;;1.80;;
6163;SDS011;3114;48.362;10.994;2022-08-03T06:46:06;1.80;;;1.70;;
6163;SDS011;3114;48.362;10.994;2022-08-03T06:48:34;2.78;;;1.80;;
6163;SDS011;3114;48.362;10.994;2022-08-03T06:51:03;2.55;;;1.40;;
6163;SDS011;3114;48.362;10.994;2022-08-03T06:53:30;5.57;;;1.73;;
6163;SDS011;3114;48.362;10.994;2022-08-03T06:55:56;3.28;;;1.70;;
6163;SDS011;3114;48.362;10.994;2022-08-03T06:58:23;1.73;;;1.48;;
6163;SDS011;3114;48.362;10.994;2022-08-03T07:00:50;1.70;;;1.60;;
6163;SDS011;3114;48.362;10.994;2022-08-03T07:03:17;3.22;;;1.50;;
6163;SDS011;3114;48.362;10.994;2022-08-03T07:05:44;1.90;;;1.80;;
6163;SDS011;3114;48.362;10.994;2022-08-03T07:08:13;1.67;;;1.50;;
6163;SDS011;3114;48.362;10.994;2022-08-03T07:10:40;3.17;;;1.40;;
6163;SDS011;3114;48.362;10.994;2022-08-03T07:13:07;1.73;;;1.50;;
6163;SDS011;3114;48.362;10.994;2022-08-03T07:15:34;2.45;;;1.40;;
6163;SDS011;3114;48.362;10.994;2022-08-03T07:18:01;3.50;;;1.52;;
6163;SDS011;3114;48.362;10.994;2022-08-03T07:20:28;2.55;;;1.35;;
6163;SDS011;3114;48.362;10.994;2022-08-03T07:22:55;1.80;;;1.48;;
6163;SDS011;3114;48.362;10.994;2022-08-03T07:25:24;2.30;;;1.20;;
6163;SDS011;3114;48.362;10.994;2022-08-03T07:27:51;2.00;;;1.38;;
6163;SDS011;3114;48.362;10.994;2022-08-03T07:30:18;2.53;;;1.10;;
6163;SDS011;3114;48.362;10.994;2022-08-03T07:32:45;1.58;;;1.17;;
6163;SDS011;3114;48.362;10.994;2022-08-03T07:35:11;1.80;;;1.30;;
6163;SDS011;3114;48.362;10.994;2022-08-03T07:37:38;2.83;;;1.40;;
6163;SDS011;3114;48.362;10.994;2022-08-03T07:40:05;5.28;;;1.55;;
6163;SDS011;3114;48.362;10.994;2022-08-03T07:42:34;1.85;;;1.50;;
6163;SDS011;3114;48.362;10.994;2022-08-03T07:45:01;4.05;;;1.63;;
6163;SDS011;3114;48.362;10.994;2022-08-03T07:47:29;1.40;;;1.30;;
6163;SDS011;3114;48.362;10.994;2022-08-03T07:49:56;1.45;;;1.35;;
6163;SDS011;3114;48.362;10.994;2022-08-03T07:52:23;1.23;;;1.20;;
6163;SDS011;3114;48.362;10.994;2022-08-03T07:55:08;2.05;;;1.38;;
6163;SDS011;3114;48.362;10.994;2022-08-03T07:57:36;4.32;;;1.58;;
6163;SDS011;3114;48.362;10.994;2022-08-03T08:00:04;1.55;;;1.45;;
6163;SDS011;3114;48.362;10.994;2022-08-03T08:02:34;1.63;;;1.52;;
6163;SDS011;3114;48.362;10.994;2022-08-03T08:05:00;1.90;;;1.30;;
6163;SDS011;3114;48.362;10.994;2022-08-03T08:07:27;1.98;;;1.48;;
6163;SDS011;3114;48.362;10.994;2022-08-03T08:09:54;2.28;;;1.40;;
6163;SDS011;3114;48.362;10.994;2022-08-03T08:12:21;2.38;;;1.35;;
6163;SDS011;3114;48.362;10.994;2022-08-03T08:14:49;1.50;;;1.40;;
6163;SDS011;3114;48.362;10.994;2022-08-03T08:17:16;2.17;;;1.38;;
6163;SDS011;3114;48.362;10.994;2022-08-03T08:19:43;2.33;;;2.00;;
6163;SDS011;3114;48.362;10.994;2022-08-03T08:22:10;1.88;;;1.52;;
6163;SDS011;3114;48.362;10.994;2022-08-03T08:24:37;1.40;;;1.30;;
6163;SDS011;3114;48.362;10.994;2022-08-03T08:27:04;1.77;;;1.33;;
6163;SDS011;3114;48.362;10.994;2022-08-03T08:29:32;1.98;;;1.35;;
6163;SDS011;3114;48.362;10.994;2022-08-03T08:32:01;3.50;;;1.40;;
6163;SDS011;3114;48.362;10.994;2022-08-03T08:34:27;1.48;;;1.23;;
6163;SDS011;3114;48.362;10.994;2022-08-03T08:36:55;3.35;;;1.20;;
6163;SDS011;3114;48.362;10.994;2022-08-03T08:39:22;2.35;;;1.20;;
6163;SDS011;3114;48.362;10.994;2022-08-03T08:41:49;1.27;;;1.17;;
6163;SDS011;3114;48.362;10.994;2022-08-03T08:44:17;2.38;;;1.27;;
6163;SDS011;3114;48.362;10.994;2022-08-03T08:46:43;1.15;;;1.05;;
6163;SDS011;3114;48.362;10.994;2022-08-03T08:49:12;4.50;;;1.13;;
6163;SDS011;3114;48.362;10.994;2022-08-03T08:51:43;0.90;;;0.90;;
6163;SDS011;3114;48.362;10.994;2022-08-03T08:54:12;1.55;;;1.02;;
6163;SDS011;3114;48.362;10.994;2022-08-03T08:56:40;1.60;;;1.05;;
6163;SDS011;3114;48.362;10.994;2022-08-03T08:59:08;1.08;;;0.98;;
6163;SDS011;3114;48.362;10.994;2022-08-03T09:01:35;2.40;;;1.10;;
6163;SDS011;3114;48.362;10.994;2022-08-03T09:04:04;1.20;;;1.10;;
6163;SDS011;3114;48.362;10.994;2022-08-03T09:06:33;1.02;;;0.95;;
6163;SDS011;3114;48.362;10.994;2022-08-03T09:09:00;2.47;;;1.00;;
6163;SDS011;3114;48.362;10.994;2022-08-03T09:11:27;1.27;;;0.90;;
6163;SDS011;3114;48.362;10.994;2022-08-03T09:13:53;0.88;;;0.88;;
6163;SDS011;3114;48.362;10.994;2022-08-03T09:16:21;1.10;;;1.00;;
6163;SDS011;3114;48.362;10.994;2022-08-03T09:18:48;1.77;;;1.00;;
6163;SDS011;3114;48.362;10.994;2022-08-03T09:21:18;1.10;;;0.88;;
6163;SDS011;3114;48.362;10.994;2022-08-03T09:23:48;1.70;;;0.70;;
6163;SDS011;3114;48.362;10.994;2022-08-03T09:26:20;2.30;;;0.90;;
6163;SDS011;3114;48.362;10.994;2022-08-03T09:28:58;1.00;;;0.95;;
6163;SDS011;3114;48.362;10.994;2022-08-03T09:31:30;0.95;;;0.85;;
6163;SDS011;3114;48.362;10.994;2022-08-03T09:33:59;2.90;;;1.10;;
6163;SDS011;3114;48.362;10.994;2022-08-03T09:36:34;1.45;;;1.02;;
6163;SDS011;3114;48.362;10.994;2022-08-03T09:39:08;2.22;;;1.25;;
6163;SDS011;3114;48.362;10.994;2022-08-03T09:41:36;2.80;;;1.00;;
6163;SDS011;3114;48.362;10.994;2022-08-03T09:44:04;1.20;;;1.10;;
6163;SDS011;3114;48.362;10.994;2022-08-03T09:46:46;2.63;;;0.80;;
6163;SDS011;3114;48.362;10.994;2022-08-03T09:49:14;3.50;;;0.90;;
6163;SDS011;3114;48.362;10.994;2022-08-03T09:51:40;0.80;;;0.80;;
6163;SDS011;3114;48.362;10.994;2022-08-03T09:54:09;2.03;;;1.00;;
6163;SDS011;3114;48.362;10.994;2022-08-03T09:56:36;2.03;;;1.30;;
6163;SDS011;3114;48.362;10.994;2022-08-03T09:59:04;1.13;;;1.00;;
6163;SDS011;3114;48.362;10.994;2022-08-03T10:01:31;1.42;;;1.08;;
6163;SDS011;3114;48.362;10.994;2022-08-03T10:03:58;1.10;;;1.00;;
6163;SDS011;3114;48.362;10.994;2022-08-03T10:06:26;1.35;;;1.20;;
6163;SDS011;3114;48.362;10.994;2022-08-03T10:09:03;1.08;;;0.70;;
6163;SDS011;3114;48.362;10.994;2022-08-03T10:11:33;6.28;;;0.95;;
6163;SDS011;3114;48.362;10.994;2022-08-03T10:14:01;1.10;;;1.00;;
6163;SDS011;3114;48.362;10.994;2022-08-03T10:16:32;1.23;;;1.00;;
6163;SDS011;3114;48.362;10.994;2022-08-03T10:19:00;0.73;;;0.73;;
6163;SDS011;3114;48.362;10.994;2022-08-03T10:21:28;1.00;;;0.70;;
6163;SDS011;3114;48.362;10.994;2022-08-03T10:23:58;0.90;;;0.70;;
6163;SDS011;3114;48.362;10.994;2022-08-03T10:26:33;1.20;;;1.10;;
6163;SDS011;3114;48.362;10.994;2022-08-03T10:29:02;1.33;;;0.77;;
6163;SDS011;3114;48.362;10.994;2022-08-03T10:31:33;1.10;;;1.00;;
6163;SDS011;3114;48.362;10.994;2022-08-03T10:34:06;1.42;;;0.82;;
6163;SDS011;3114;48.362;10.994;2022-08-03T10:36:40;0.70;;;0.70;;
6163;SDS011;3114;48.362;10.994;2022-08-03T10:39:08;1.48;;;0.80;;
6163;SDS011;3114;48.362;10.994;2022-08-03T10:41:39;0.77;;;0.77;;
6163;SDS011;3114;48.362;10.994;2022-08-03T10:44:09;1.35;;;1.10;;
6163;SDS011;3114;48.362;10.994;2022-08-03T10:46:39;0.80;;;0.80;;
6163;SDS011;3114;48.362;10.994;2022-08-03T10:49:08;3.25;;;0.95;;
6163;SDS011;3114;48.362;10.994;2022-08-03T10:51:38;0.82;;;0.82;;
6163;SDS011;3114;48.362;10.994;2022-08-03T10:54:06;0.93;;;0.93;;
6163;SDS011;3114;48.362;10.994;2022-08-03T10:56:54;0.63;;;0.63;;
6163;SDS011;3114;48.362;10.994;2022-08-03T10:59:57;0.63;;;0.60;;
6163;SDS011;3114;48.362;10.994;2022-08-03T11:05:34;1.00;;;0.93;;
6163;SDS011;3114;48.362;10.994;2022-08-03T11:08:18;1.60;;;0.77;;
6163;SDS011;3114;48.362;10.994;2022-08-03T11:10:53;0.80;;;0.80;;
6163;SDS011;3114;48.362;10.994;2022-08-03T11:13:23;0.95;;;0.77;;
6163;SDS011;3114;48.362;10.994;2022-08-03T11:15:53;1.25;;;0.90;;
6163;SDS011;3114;48.362;10.994;2022-08-03T11:18:21;4.95;;;1.02;;
6163;SDS011;3114;48.362;10.994;2022-08-03T11:20:49;2.15;;;1.00;;
6163;SDS011;3114;48.362;10.994;2022-08-03T11:23:17;1.27;;;1.17;;
6163;SDS011;3114;48.362;10.994;2022-08-03T11:28:43;1.27;;;0.90;;
6163;SDS011;3114;48.362;10.994;2022-08-03T11:34:20;1.77;;;1.20;;
6163;SDS011;3114;48.362;10.994;2022-08-03T11:39:49;1.02;;;0.95;;
6163;SDS011;3114;48.362;10.994;2022-08-03T11:45:07;1.42;;;0.90;;
6163;SDS011;3114;48.362;10.994;2022-08-03T11:47:36;1.83;;;0.93;;
6163;SDS011;3114;48.362;10.994;2022-08-03T11:50:04;1.08;;;0.98;;
6163;SDS011;3114;48.362;10.994;2022-08-03T11:52:35;2.20;;;0.90;;
6163;SDS011;3114;48.362;10.994;2022-08-03T11:55:07;1.60;;;0.80;;
6163;SDS011;3114;48.362;10.994;2022-08-03T11:57:35;1.42;;;0.77;;
6163;SDS011;3114;48.362;10.994;2022-08-03T12:00:07;3.15;;;0.82;;
6163;SDS011;3114;48.362;10.994;2022-08-03T12:03:03;0.95;;;0.80;;
6163;SDS011;3114;48.362;10.994;2022-08-03T12:05:35;1.40;;;1.00;;
6163;SDS011;3114;48.362;10.994;2022-08-03T12:08:13;1.75;;;0.90;;
6163;SDS011;3114;48.362;10.994;2022-08-03T12:10:46;2.35;;;1.05;;
6163;SDS011;3114;48.362;10.994;2022-08-03T12:13:14;1.17;;;1.10;;
6163;SDS011;3114;48.362;10.994;2022-08-03T12:15:51;1.92;;;0.90;;
6163;SDS011;3114;48.362;10.994;2022-08-03T12:18:19;0.90;;;0.80;;
6163;SDS011;3114;48.362;10.994;2022-08-03T12:20:47;5.63;;;0.95;;
6163;SDS011;3114;48.362;10.994;2022-08-03T12:23:18;1.02;;;0.93;;
6163;SDS011;3114;48.362;10.994;2022-08-03T12:25:46;0.93;;;0.80;;
6163;SDS011;3114;48.362;10.994;2022-08-03T12:28:15;1.10;;;1.10;;
6163;SDS011;3114;48.362;10.994;2022-08-03T12:30:44;3.42;;;1.20;;
6163;SDS011;3114;48.362;10.994;2022-08-03T12:33:17;1.83;;;1.00;;
6163;SDS011;3114;48.362;10.994;2022-08-03T12:35:46;1.10;;;0.90;;
6163;SDS011;3114;48.362;10.994;2022-08-03T12:38:18;2.03;;;0.93;;
6163;SDS011;3114;48.362;10.994;2022-08-03T12:40:54;2.35;;;0.90;;
6163;SDS011;3114;48.362;10.994;2022-08-03T12:43:22;1.02;;;0.80;;
6163;SDS011;3114;48.362;10.994;2022-08-03T12:45:48;2.33;;;0.90;;
6163;SDS011;3114;48.362;10.994;2022-08-03T12:48:17;1.23;;;0.80;;
6163;SDS011;3114;48.362;10.994;2022-08-03T12:50:43;1.90;;;1.00;;
6163;SDS011;3114;48.362;10.994;2022-08-03T12:53:10;1.45;;;0.85;;
6163;SDS011;3114;48.362;10.994;2022-08-03T12:55:37;1.20;;;1.10;;
6163;SDS011;3114;48.362;10.994;2022-08-03T12:58:05;1.25;;;1.15;;
6163;SDS011;3114;48.362;10.994;2022-08-03T13:00:35;0.95;;;0.95;;
6163;SDS011;3114;48.362;10.994;2022-08-03T13:03:05;0.77;;;0.77;;
6163;SDS011;3114;48.362;10.994;2022-08-03T13:05:42;1.20;;;1.10;;
6163;SDS011;3114;48.362;10.994;2022-08-03T13:08:16;2.60;;;0.90;;
6163;SDS011;3114;48.362;10.994;2022-08-03T13:10:44;2.50;;;1.00;;
6163;SDS011;3114;48.362;10.994;2022-08-03T13:13:11;4.18;;;1.15;;
6163;SDS011;3114;48.362;10.994;2022-08-03T13:15:38;0.95;;;0.90;;
6163;SDS011;3114;48.362;10.994;2022-08-03T13:18:06;1.00;;;1.00;;
6163;SDS011;3114;48.362;10.994;2022-08-03T13:20:34;1.70;;;0.80;;
6163;SDS011;3114;48.362;10.994;2022-08-03T13:23:02;0.90;;;0.90;;
6163;SDS011;3114;48.362;10.994;2022-08-03T13:25:29;2.05;;;1.10;;
6163;SDS011;3114;48.362;10.994;2022-08-03T13:27:56;2.17;;;0.80;;
6163;SDS011;3114;48.362;10.994;2022-08-03T13:30:23;1.48;;;0.80;;
6163;SDS011;3114;48.362;10.994;2022-08-03T13:32:50;0.80;;;0.80;;
6163;SDS011;3114;48.362;10.994;2022-08-03T13:35:17;1.00;;;0.90;;
6163;SDS011;3114;48.362;10.994;2022-08-03T13:37:44;3.67;;;1.10;;
6163;SDS011;3114;48.362;10.994;2022-08-03T13:40:12;0.88;;;0.80;;
6163;SDS011;3114;48.362;10.994;2022-08-03T13:42:39;1.10;;;1.00;;
6163;SDS011;3114;48.362;10.994;2022-08-03T13:45:06;2.63;;;1.00;;
6163;SDS011;3114;48.362;10.994;2022-08-03T13:47:34;2.22;;;1.00;;
6163;SDS011;3114;48.362;10.994;2022-08-03T13:50:02;3.13;;;1.02;;
6163;SDS011;3114;48.362;10.994;2022-08-03T13:52:30;3.25;;;1.10;;
6163;SDS011;3114;48.362;10.994;2022-08-03T13:54:57;2.35;;;0.90;;
6163;SDS011;3114;48.362;10.994;2022-08-03T13:57:28;1.23;;;0.85;;
6163;SDS011;3114;48.362;10.994;2022-08-03T13:59:54;2.50;;;0.82;;
6163;SDS011;3114;48.362;10.994;2022-08-03T14:02:21;16.65;;;2.67;;
6163;SDS011;3114;48.362;10.994;2022-08-03T14:04:48;2.88;;;1.42;;
6163;SDS011;3114;48.362;10.994;2022-08-03T14:07:15;2.35;;;0.90;;
6163;SDS011;3114;48.362;10.994;2022-08-03T14:09:42;0.93;;;0.70;;
6163;SDS011;3114;48.362;10.994;2022-08-03T14:12:09;1.25;;;0.85;;
6163;SDS011;3114;48.362;10.994;2022-08-03T14:14:37;1.00;;;1.00;;
6163;SDS011;3114;48.362;10.994;2022-08-03T14:17:04;2.00;;;1.02;;
6163;SDS011;3114;48.362;10.994;2022-08-03T14:19:31;1.00;;;1.00;;
6163;SDS011;3114;48.362;10.994;2022-08-03T14:21:58;1.88;;;1.10;;
6163;SDS011;3114;48.362;10.994;2022-08-03T14:24:24;3.28;;;1.13;;
6163;SDS011;3114;48.362;10.994;2022-08-03T14:26:51;1.38;;;1.27;;
6163;SDS011;3114;48.362;10.994;2022-08-03T14:29:18;1.17;;;1.08;;
6163;SDS011;3114;48.362;10.994;2022-08-03T14:31:46;1.55;;;1.08;;
6163;SDS011;3114;48.362;10.994;2022-08-03T14:34:13;1.10;;;1.00;;
6163;SDS011;3114;48.362;10.994;2022-08-03T14:36:40;1.35;;;1.00;;
6163;SDS011;3114;48.362;10.994;2022-08-03T14:39:07;1.00;;;1.00;;
6163;SDS011;3114;48.362;10.994;2022-08-03T14:41:34;1.17;;;1.08;;
6163;SDS011;3114;48.362;10.994;2022-08-03T14:44:01;0.95;;;0.95;;
6163;SDS011;3114;48.362;10.994;2022-08-03T14:46:28;2.20;;;1.00;;
6163;SDS011;3114;48.362;10.994;2022-08-03T14:48:57;1.00;;;0.90;;
6163;SDS011;3114;48.362;10.994;2022-08-03T14:51:24;0.90;;;0.90;;
6163;SDS011;3114;48.362;10.994;2022-08-03T14:53:51;1.15;;;0.77;;
6163;SDS011;3114;48.362;10.994;2022-08-03T14:56:23;0.90;;;0.90;;
6163;SDS011;3114;48.362;10.994;2022-08-03T14:58:50;1.20;;;0.70;;
6163;SDS011;3114;48.362;10.994;2022-08-03T15:01:17;0.73;;;0.73;;
6163;SDS011;3114;48.362;10.994;2022-08-03T15:03:43;1.42;;;0.95;;
6163;SDS011;3114;48.362;10.994;2022-08-03T15:06:13;1.00;;;1.00;;
6163;SDS011;3114;48.362;10.994;2022-08-03T15:08:40;1.58;;;1.02;;
6163;SDS011;3114;48.362;10.994;2022-08-03T15:11:07;1.35;;;0.80;;
6163;SDS011;3114;48.362;10.994;2022-08-03T15:13:34;0.75;;;0.75;;
6163;SDS011;3114;48.362;10.994;2022-08-03T15:16:01;3.20;;;0.60;;
6163;SDS011;3114;48.362;10.994;2022-08-03T15:18:27;1.65;;;0.80;;
6163;SDS011;3114;48.362;10.994;2022-08-03T15:20:54;1.55;;;1.35;;
6163;SDS011;3114;48.362;10.994;2022-08-03T15:23:22;0.95;;;0.80;;
6163;SDS011;3114;48.362;10.994;2022-08-03T15:25:50;0.95;;;0.90;;